Time;durP1;ratioP1;P1;durP2;ratioP2;P2;SDS_P1;SDS_P2;PMS_P1;PMS_P2;Temp;Humidity;BMP_temperature;BMP_pressure;BME280_temperature;BME280_humidity;BME280_pressure;Samples;Min_cycle;Max_cycle;Signal;HPM_P1;HPM_P2
2022/07/26 00:00:50;;;;;;;;;;;;;;;21.17;68.85;100056.34;4994504;28;1429;-91
2022/07/26 00:03:16;;;;;;;;;;;;;;;21.07;69.04;100052.13;4994492;28;1615;-91
2022/07/26 00:05:42;;;;;;;;;;;;;;;21.08;69.06;100054.56;4994002;28;1508;-91
2022/07/26 00:08:10;;;;;;;;;;;;;;;20.86;71.40;100054.38;4994249;28;1526;-92
2022/07/26 00:10:43;;;;;;;;;;;;;;;21.00;70.98;100054.75;4994290;28;1898;-91
2022/07/26 00:13:08;;;;;;;;;;;;;;;20.86;71.64;100051.59;4991524;28;1584;-91
2022/07/26 00:15:34;;;;;;;;;;;;;;;20.96;70.78;100054.66;4991044;28;1518;-91
2022/07/26 00:17:59;;;;;;;;;;;;;;;21.12;69.46;100055.44;4992710;28;1708;-91
2022/07/26 00:20:24;;;;;;;;;;;;;;;21.05;70.13;100055.25;4995270;28;1269;-89
2022/07/26 00:22:49;;;;;;;;;;;;;;;20.88;71.41;100057.63;4990991;28;1364;-89
2022/07/26 00:25:14;;;;;;;;;;;;;;;20.99;70.49;100053.13;4993771;28;1972;-88
2022/07/26 00:27:39;;;;;;;;;;;;;;;21.01;69.82;100054.34;4989240;28;1370;-90
2022/07/26 00:30:06;;;;;;;;;;;;;;;21.02;69.38;100055.97;5004468;28;1822;-91
2022/07/26 00:32:31;;;;;;;;;;;;;;;20.97;70.38;100058.25;4994467;28;1961;-89
2022/07/26 00:34:56;;;;;;;;;;;;;;;20.86;70.25;100069.09;4995220;28;1268;-92
2022/07/26 00:37:21;;;;;;;;;;;;;;;20.85;71.37;100063.88;4991582;28;1624;-89
2022/07/26 00:39:47;;;;;;;;;;;;;;;20.91;70.43;100063.28;4994907;28;1491;-91
2022/07/26 00:42:12;;;;;;;;;;;;;;;20.69;72.30;100064.72;4993367;28;1548;-92
2022/07/26 00:44:39;;;;;;;;;;;;;;;20.91;70.65;100068.03;4986834;28;1709;-91
2022/07/26 00:47:04;;;;;;;;;;;;;;;20.92;70.35;100067.69;4993837;28;1327;-91
2022/07/26 00:49:29;;;;;;;;;;;;;;;20.93;70.10;100074.03;4998008;28;1453;-87
2022/07/26 00:51:54;;;;;;;;;;;;;;;20.76;70.70;100072.41;4997014;28;1897;-91
2022/07/26 00:54:20;;;;;;;;;;;;;;;20.76;70.93;100064.88;4999389;28;1639;-86
2022/07/26 00:56:45;;;;;;;;;;;;;;;20.72;70.97;100080.69;4999879;28;1073;-92
2022/07/26 00:59:10;;;;;;;;;;;;;;;20.71;71.35;100078.25;4997399;28;1572;-92
2022/07/26 01:01:35;;;;;;;;;;;;;;;20.57;72.74;100077.91;4987064;28;1576;-91
2022/07/26 01:04:00;;;;;;;;;;;;;;;20.73;72.60;100070.38;4995012;28;1207;-92
2022/07/26 01:06:26;;;;;;;;;;;;;;;20.77;68.86;100074.84;4993154;28;1275;-90
2022/07/26 01:08:51;;;;;;;;;;;;;;;20.74;70.17;100069.22;4993620;28;1581;-91
2022/07/26 01:11:16;;;;;;;;;;;;;;;20.75;68.99;100071.63;4994561;28;1894;-91
2022/07/26 01:13:48;;;;;;;;;;;;;;;20.81;69.14;100077.72;4990033;28;1454;-93
2022/07/26 01:16:13;;;;;;;;;;;;;;;20.81;67.93;100074.13;4990476;28;1573;-91
2022/07/26 01:18:39;;;;;;;;;;;;;;;20.69;65.81;100078.63;4990120;28;1597;-92
2022/07/26 01:21:05;;;;;;;;;;;;;;;20.91;66.46;100079.16;4992318;28;1696;-92
2022/07/26 01:23:31;;;;;;;;;;;;;;;21.04;65.37;100080.66;4994435;28;1091;-91
2022/07/26 01:25:57;;;;;;;;;;;;;;;21.07;65.89;100089.13;4991191;28;1525;-91
2022/07/26 01:28:22;;;;;;;;;;;;;;;20.86;67.10;100087.75;4991763;28;1549;-91
2022/07/26 01:30:47;;;;;;;;;;;;;;;20.88;67.42;100077.91;4991199;28;1965;-91
2022/07/26 01:33:12;;;;;;;;;;;;;;;20.83;68.95;100086.53;4984733;28;1213;-92
2022/07/26 01:35:38;;;;;;;;;;;;;;;20.84;70.87;100085.34;4992818;28;1502;-93
2022/07/26 01:38:03;;;;;;;;;;;;;;;20.62;69.09;100078.44;4991251;28;1561;-91
2022/07/26 01:40:28;;;;;;;;;;;;;;;20.60;70.47;100088.28;4993498;28;1498;-93
2022/07/26 01:42:53;;;;;;;;;;;;;;;20.60;71.81;100083.53;4993569;28;1277;-91
2022/07/26 01:45:18;;;;;;;;;;;;;;;20.60;71.24;100082.72;4991064;28;1609;-91
2022/07/26 01:47:48;;;;;;;;;;;;;;;20.63;70.91;100088.41;4989814;28;1522;-91
2022/07/26 01:50:14;;;;;;;;;;;;;;;20.63;71.61;100087.59;4991883;28;1517;-92
2022/07/26 01:52:39;;;;;;;;;;;;;;;20.66;71.47;100092.44;4992815;28;1887;-91
2022/07/26 01:55:05;;;;;;;;;;;;;;;20.70;70.85;100093.31;4993088;28;1592;-91
2022/07/26 01:57:30;;;;;;;;;;;;;;;20.63;72.24;100107.06;4993226;28;1203;-91
2022/07/26 01:59:55;;;;;;;;;;;;;;;20.59;72.62;100100.56;4991218;28;1473;-90
2022/07/26 02:02:20;;;;;;;;;;;;;;;20.50;73.11;100108.31;4989138;28;1494;-90
2022/07/26 02:04:57;;;;;;;;;;;;;;;20.49;73.40;100101.94;4992742;28;1414;-92
2022/07/26 02:07:26;;;;;;;;;;;;;;;20.37;74.27;100102.81;5002277;28;1272;-87
2022/07/26 02:09:52;;;;;;;;;;;;;;;20.33;73.90;100112.97;4995002;28;1742;-90
2022/07/26 02:12:17;;;;;;;;;;;;;;;20.31;74.53;100103.41;4981506;28;1969;-91
2022/07/26 02:14:42;;;;;;;;;;;;;;;20.32;73.17;100102.22;4992740;28;1395;-90
2022/07/26 02:17:08;;;;;;;;;;;;;;;20.41;72.62;100113.22;4991348;28;1557;-91
2022/07/26 02:19:33;;;;;;;;;;;;;;;20.43;73.25;100108.91;4990123;28;1190;-92
2022/07/26 02:21:58;;;;;;;;;;;;;;;20.36;74.11;100108.72;4987880;28;1245;-91
2022/07/26 02:24:26;;;;;;;;;;;;;;;20.33;74.44;100103.84;4991157;28;1615;-91
2022/07/26 02:26:51;;;;;;;;;;;;;;;20.37;74.76;100108.38;4990214;28;1493;-92
2022/07/26 02:29:16;;;;;;;;;;;;;;;20.25;74.68;100113.13;4989917;28;1604;-91
2022/07/26 02:31:41;;;;;;;;;;;;;;;20.28;75.28;100116.03;4991442;28;1963;-91
2022/07/26 02:34:07;;;;;;;;;;;;;;;20.35;75.45;100119.03;4991345;28;1431;-91
2022/07/26 02:36:32;;;;;;;;;;;;;;;20.24;75.89;100114.31;4991252;28;1422;-91
2022/07/26 02:38:57;;;;;;;;;;;;;;;20.32;74.99;100116.13;4989659;28;1489;-92
2022/07/26 02:41:22;;;;;;;;;;;;;;;20.25;75.10;100115.91;5007093;28;1225;-90
2022/07/26 02:43:47;;;;;;;;;;;;;;;20.05;75.75;100112.19;4993163;28;1894;-91
2022/07/26 02:46:12;;;;;;;;;;;;;;;20.24;75.31;100108.75;4993765;28;1368;-91
2022/07/26 02:48:37;;;;;;;;;;;;;;;20.16;71.95;100115.28;4992900;28;1293;-91
2022/07/26 02:51:03;;;;;;;;;;;;;;;20.03;75.36;100117.28;4985480;28;1886;-91
2022/07/26 02:53:28;;;;;;;;;;;;;;;19.93;75.66;100110.25;4990250;28;1534;-92
2022/07/26 02:55:53;;;;;;;;;;;;;;;20.09;75.46;100110.31;4986067;28;1086;-91
2022/07/26 02:58:23;;;;;;;;;;;;;;;20.09;75.36;100115.06;4992017;28;1070;-91
2022/07/26 03:00:48;;;;;;;;;;;;;;;20.09;74.80;100118.66;4988896;28;1718;-87
2022/07/26 03:03:14;;;;;;;;;;;;;;;20.11;75.59;100118.28;4990174;28;1415;-90
2022/07/26 03:05:39;;;;;;;;;;;;;;;20.18;75.05;100115.72;4991834;28;1363;-90
2022/07/26 03:08:04;;;;;;;;;;;;;;;20.09;70.58;100112.28;4994245;28;1545;-91
2022/07/26 03:10:29;;;;;;;;;;;;;;;20.18;70.99;100121.28;4995588;28;1499;-88
2022/07/26 03:12:55;;;;;;;;;;;;;;;20.24;70.78;100123.47;4992721;28;1963;-89
2022/07/26 03:15:20;;;;;;;;;;;;;;;20.32;71.37;100118.91;4993304;28;1533;-89
2022/07/26 03:17:45;;;;;;;;;;;;;;;20.30;71.56;100119.25;4994555;28;1874;-90
2022/07/26 03:20:11;;;;;;;;;;;;;;;20.29;71.76;100125.97;4995945;28;1585;-91
2022/07/26 03:22:36;;;;;;;;;;;;;;;20.29;71.81;100128.75;4996325;28;1217;-92
2022/07/26 03:25:01;;;;;;;;;;;;;;;20.28;71.17;100121.56;4995246;28;1489;-92
2022/07/26 03:27:26;;;;;;;;;;;;;;;20.30;71.76;100129.56;4994422;28;1655;-91
2022/07/26 03:29:51;;;;;;;;;;;;;;;20.28;70.35;100129.09;4995309;28;1537;-92
2022/07/26 03:32:16;;;;;;;;;;;;;;;20.21;72.95;100134.47;4996035;28;1894;-90
2022/07/26 03:34:42;;;;;;;;;;;;;;;20.14;72.62;100139.84;4993178;28;1481;-88
2022/07/26 03:37:07;;;;;;;;;;;;;;;20.00;72.44;100132.69;4987454;28;1329;-84
2022/07/26 03:39:32;;;;;;;;;;;;;;;19.94;70.96;100136.88;4995583;28;1204;-86
2022/07/26 03:41:57;;;;;;;;;;;;;;;19.96;70.84;100140.13;4995579;28;1548;-85
2022/07/26 03:44:22;;;;;;;;;;;;;;;20.02;70.72;100135.13;4996795;28;1559;-88
2022/07/26 03:46:47;;;;;;;;;;;;;;;20.03;72.13;100132.00;4995514;28;1585;-88
2022/07/26 03:49:12;;;;;;;;;;;;;;;19.97;72.08;100135.38;4995635;28;1268;-88
2022/07/26 03:51:38;;;;;;;;;;;;;;;19.94;72.38;100134.09;4996453;28;1965;-89
2022/07/26 03:54:03;;;;;;;;;;;;;;;19.96;72.58;100137.34;4995330;28;1078;-88
2022/07/26 03:56:30;;;;;;;;;;;;;;;19.91;73.15;100137.56;4995412;28;1395;-88
2022/07/26 03:58:56;;;;;;;;;;;;;;;19.90;72.38;100143.50;4995763;28;1224;-88
2022/07/26 04:01:21;;;;;;;;;;;;;;;19.78;74.10;100140.75;4995374;28;1271;-89
2022/07/26 04:03:46;;;;;;;;;;;;;;;19.68;72.81;100147.59;4996485;28;1015;-89
2022/07/26 04:06:11;;;;;;;;;;;;;;;19.77;71.61;100141.91;4994708;28;908;-86
2022/07/26 04:08:37;;;;;;;;;;;;;;;19.77;71.88;100145.50;4993237;28;1540;-86
2022/07/26 04:11:02;;;;;;;;;;;;;;;19.80;72.51;100153.13;4995215;28;1902;-85
2022/07/26 04:13:27;;;;;;;;;;;;;;;19.81;72.82;100154.75;4990388;28;972;-85
2022/07/26 04:15:52;;;;;;;;;;;;;;;19.73;73.40;100155.69;4989480;28;974;-85
2022/07/26 04:18:18;;;;;;;;;;;;;;;19.76;72.25;100149.41;4994704;28;1595;-85
2022/07/26 04:20:43;;;;;;;;;;;;;;;19.72;71.97;100147.72;4995445;28;1243;-86
2022/07/26 04:23:08;;;;;;;;;;;;;;;19.78;71.31;100149.88;4996548;28;1150;-87
2022/07/26 04:25:33;;;;;;;;;;;;;;;19.84;72.05;100150.44;4995415;28;1442;-87
2022/07/26 04:27:59;;;;;;;;;;;;;;;19.87;71.91;100155.31;4993955;28;1570;-86
2022/07/26 04:30:24;;;;;;;;;;;;;;;19.81;72.18;100153.94;4994676;28;1754;-85
2022/07/26 04:32:49;;;;;;;;;;;;;;;19.85;72.37;100152.88;4994204;28;1910;-85
2022/07/26 04:35:15;;;;;;;;;;;;;;;19.91;72.36;100153.44;4993839;28;1670;-86
2022/07/26 04:37:41;;;;;;;;;;;;;;;19.93;72.18;100154.72;4994012;28;1613;-85
2022/07/26 04:40:07;;;;;;;;;;;;;;;19.95;72.13;100148.81;4996134;28;1275;-84
2022/07/26 04:42:32;;;;;;;;;;;;;;;19.97;72.83;100160.38;4995372;28;1413;-87
2022/07/26 04:44:57;;;;;;;;;;;;;;;20.05;72.54;100162.19;4995568;28;827;-88
2022/07/26 04:47:22;;;;;;;;;;;;;;;20.06;72.68;100157.47;4995770;28;996;-88
2022/07/26 04:49:48;;;;;;;;;;;;;;;20.05;72.17;100155.84;4995247;28;965;-88
2022/07/26 04:52:13;;;;;;;;;;;;;;;20.05;72.08;100159.44;4994875;28;1890;-89
2022/07/26 04:54:38;;;;;;;;;;;;;;;20.01;71.02;100164.06;4994977;28;1420;-88
2022/07/26 04:57:03;;;;;;;;;;;;;;;20.03;71.89;100162.56;4994571;28;1099;-88
2022/07/26 04:59:28;;;;;;;;;;;;;;;19.98;71.59;100162.81;4994061;28;1051;-90
2022/07/26 05:01:53;;;;;;;;;;;;;;;19.90;71.16;100157.41;4975361;28;1343;-89
2022/07/26 05:04:18;;;;;;;;;;;;;;;19.97;71.32;100163.16;4975137;28;995;-90
2022/07/26 05:06:44;;;;;;;;;;;;;;;19.95;70.98;100160.72;4975622;28;893;-90
2022/07/26 05:09:09;;;;;;;;;;;;;;;19.95;71.63;100157.94;4976102;28;1196;-89
2022/07/26 05:11:39;;;;;;;;;;;;;;;19.88;70.70;100163.28;4977747;28;1894;-88
2022/07/26 05:14:05;;;;;;;;;;;;;;;19.93;72.10;100156.66;4991502;28;1441;-88
2022/07/26 05:16:30;;;;;;;;;;;;;;;19.95;71.23;100159.91;4995927;28;1482;-87
2022/07/26 05:18:55;;;;;;;;;;;;;;;19.85;71.01;100161.22;5002869;28;1240;-84
2022/07/26 05:21:20;;;;;;;;;;;;;;;19.70;72.74;100158.34;4995669;28;1496;-84
2022/07/26 05:23:45;;;;;;;;;;;;;;;19.78;72.16;100166.56;4996134;28;1134;-84
2022/07/26 05:26:11;;;;;;;;;;;;;;;19.82;72.34;100164.69;4994797;28;1024;-85
2022/07/26 05:28:37;;;;;;;;;;;;;;;19.71;71.76;100166.34;4994000;28;1611;-83
2022/07/26 05:31:02;;;;;;;;;;;;;;;19.74;71.97;100171.19;4994720;28;1898;-84
2022/07/26 05:33:27;;;;;;;;;;;;;;;19.84;72.07;100170.69;4993893;28;1356;-84
2022/07/26 05:35:52;;;;;;;;;;;;;;;19.64;72.49;100169.72;4994838;28;1405;-84
2022/07/26 05:38:17;;;;;;;;;;;;;;;19.56;74.19;100186.50;4993793;28;1375;-84
2022/07/26 05:40:43;;;;;;;;;;;;;;;19.64;73.11;100171.69;4995042;28;1363;-84
2022/07/26 05:43:08;;;;;;;;;;;;;;;19.69;73.01;100174.19;4994488;28;1315;-84
2022/07/26 05:45:33;;;;;;;;;;;;;;;19.86;73.02;100184.25;4994532;28;1599;-85
2022/07/26 05:47:58;;;;;;;;;;;;;;;19.84;73.18;100178.22;4994136;28;1373;-84
2022/07/26 05:50:23;;;;;;;;;;;;;;;19.88;72.67;100174.41;4995718;28;1292;-84
2022/07/26 05:52:48;;;;;;;;;;;;;;;19.93;72.28;100171.38;4993449;28;1954;-87
2022/07/26 05:55:13;;;;;;;;;;;;;;;19.97;74.14;100186.19;4992880;28;1643;-87
2022/07/26 05:57:46;;;;;;;;;;;;;;;19.90;73.08;100174.88;4992560;28;1460;-87
2022/07/26 06:00:11;;;;;;;;;;;;;;;19.88;73.23;100176.38;4991362;28;1476;-87
2022/07/26 06:02:36;;;;;;;;;;;;;;;19.90;74.38;100177.66;4993028;28;1280;-87
2022/07/26 06:05:02;;;;;;;;;;;;;;;19.84;73.78;100167.91;4995087;28;1223;-85
2022/07/26 06:07:27;;;;;;;;;;;;;;;19.81;74.14;100176.97;4993961;28;1202;-84
2022/07/26 06:09:52;;;;;;;;;;;;;;;19.69;73.26;100173.38;4989130;28;1941;-85
2022/07/26 06:12:17;;;;;;;;;;;;;;;19.78;74.33;100180.44;4993678;28;1907;-84
2022/07/26 06:14:42;;;;;;;;;;;;;;;19.97;74.31;100179.81;4993125;28;1412;-87
2022/07/26 06:17:08;;;;;;;;;;;;;;;20.12;73.31;100178.28;4993369;28;1300;-87
2022/07/26 06:19:33;;;;;;;;;;;;;;;20.14;73.12;100178.72;4988449;28;1558;-86
2022/07/26 06:21:58;;;;;;;;;;;;;;;19.97;73.37;100177.84;4996830;28;1726;-85
2022/07/26 06:24:23;;;;;;;;;;;;;;;19.98;73.71;100176.69;4995859;28;1505;-90
2022/07/26 06:26:51;;;;;;;;;;;;;;;19.96;74.34;100179.00;4993492;28;1226;-90
2022/07/26 06:29:16;;;;;;;;;;;;;;;19.91;73.89;100184.78;4994731;28;908;-92
2022/07/26 06:31:41;;;;;;;;;;;;;;;19.92;73.27;100183.63;4992828;28;1898;-91
2022/07/26 06:34:07;;;;;;;;;;;;;;;19.93;72.80;100181.66;4992962;28;1251;-88
2022/07/26 06:36:32;;;;;;;;;;;;;;;19.95;73.28;100179.38;4993267;28;1220;-88
2022/07/26 06:38:57;;;;;;;;;;;;;;;19.97;73.39;100183.41;4993648;28;1303;-88
2022/07/26 06:41:22;;;;;;;;;;;;;;;19.99;73.61;100185.81;4993321;28;1303;-88
2022/07/26 06:43:47;;;;;;;;;;;;;;;19.95;73.25;100184.91;4996865;28;903;-88
2022/07/26 06:46:12;;;;;;;;;;;;;;;19.77;73.16;100192.69;4997481;28;1040;-89
2022/07/26 06:48:37;;;;;;;;;;;;;;;19.91;74.68;100187.56;4997120;28;996;-88
2022/07/26 06:51:03;;;;;;;;;;;;;;;19.93;73.33;100184.44;4997291;28;1968;-91
2022/07/26 06:53:29;;;;;;;;;;;;;;;20.11;73.17;100193.31;4997094;28;1326;-90
2022/07/26 06:55:54;;;;;;;;;;;;;;;20.07;74.34;100195.19;4997282;28;1016;-91
2022/07/26 06:58:19;;;;;;;;;;;;;;;20.09;74.39;100190.88;4996947;28;1254;-90
2022/07/26 07:00:44;;;;;;;;;;;;;;;20.12;73.78;100195.75;4997364;28;1189;-91
2022/07/26 07:03:09;;;;;;;;;;;;;;;20.21;73.45;100198.38;4998311;28;1023;-88
2022/07/26 07:05:34;;;;;;;;;;;;;;;20.16;73.24;100191.09;4996737;28;1598;-88
2022/07/26 07:07:59;;;;;;;;;;;;;;;20.23;72.50;100201.63;4996923;28;981;-89
2022/07/26 07:10:25;;;;;;;;;;;;;;;20.14;71.93;100199.00;4996531;28;1214;-88
2022/07/26 07:12:50;;;;;;;;;;;;;;;20.17;73.14;100203.84;4996147;28;1906;-88
2022/07/26 07:15:15;;;;;;;;;;;;;;;20.23;72.45;100198.84;4996634;28;972;-88
2022/07/26 07:17:40;;;;;;;;;;;;;;;20.25;72.94;100207.63;4996503;28;1008;-90
2022/07/26 07:20:05;;;;;;;;;;;;;;;20.28;72.06;100193.03;4996746;28;1192;-91
2022/07/26 07:22:31;;;;;;;;;;;;;;;20.33;72.63;100204.69;4996460;28;1191;-91
2022/07/26 07:24:56;;;;;;;;;;;;;;;20.32;72.04;100199.53;4977294;28;1498;-91
2022/07/26 07:27:21;;;;;;;;;;;;;;;20.25;72.04;100200.09;4976971;28;1185;-88
2022/07/26 07:29:46;;;;;;;;;;;;;;;20.25;71.80;100213.19;4976919;28;1208;-88
2022/07/26 07:32:11;;;;;;;;;;;;;;;20.33;71.90;100213.03;4976569;28;1887;-88
2022/07/26 07:34:37;;;;;;;;;;;;;;;20.40;71.87;100212.50;4993192;28;1788;-88
2022/07/26 07:37:03;;;;;;;;;;;;;;;20.50;72.00;100211.97;4996245;28;1299;-88
2022/07/26 07:39:28;;;;;;;;;;;;;;;20.63;72.32;100216.31;4996226;28;1212;-90
2022/07/26 07:41:53;;;;;;;;;;;;;;;20.83;72.07;100213.69;4996018;28;1288;-91
2022/07/26 07:44:18;;;;;;;;;;;;;;;20.82;72.56;100224.00;4997373;28;1028;-90
2022/07/26 07:46:44;;;;;;;;;;;;;;;20.69;72.32;100226.03;4995989;28;932;-91
2022/07/26 07:49:09;;;;;;;;;;;;;;;20.57;71.23;100219.72;4995999;28;1295;-91
2022/07/26 07:51:34;;;;;;;;;;;;;;;20.55;72.62;100231.19;4996008;28;1906;-90
2022/07/26 07:53:59;;;;;;;;;;;;;;;20.46;72.04;100238.06;4994729;28;1331;-91
2022/07/26 07:56:25;;;;;;;;;;;;;;;20.28;72.05;100223.59;4996086;28;952;-91
2022/07/26 07:58:50;;;;;;;;;;;;;;;20.21;71.91;100227.00;4996280;28;1159;-90
2022/07/26 08:01:15;;;;;;;;;;;;;;;20.35;72.50;100226.63;4995869;28;1565;-91
2022/07/26 08:03:40;;;;;;;;;;;;;;;20.48;71.60;100231.00;4997358;28;782;-90
2022/07/26 08:06:07;;;;;;;;;;;;;;;20.75;71.64;100223.81;4995986;28;914;-91
2022/07/26 08:08:32;;;;;;;;;;;;;;;20.71;71.03;100228.47;4997021;28;1346;-91
2022/07/26 08:10:57;;;;;;;;;;;;;;;20.83;71.83;100224.81;4995685;28;1894;-91
2022/07/26 08:13:23;;;;;;;;;;;;;;;20.85;71.13;100230.81;4995613;28;898;-91
2022/07/26 08:15:49;;;;;;;;;;;;;;;20.73;70.14;100232.50;4996596;28;818;-90
2022/07/26 08:18:14;;;;;;;;;;;;;;;20.65;70.65;100227.91;4995405;28;1323;-90
2022/07/26 08:20:39;;;;;;;;;;;;;;;20.86;70.59;100221.31;4995273;28;1296;-90
2022/07/26 08:23:04;;;;;;;;;;;;;;;20.80;71.10;100222.72;4995382;28;1768;-90
2022/07/26 08:25:29;;;;;;;;;;;;;;;20.79;71.10;100235.84;4995588;28;956;-91
2022/07/26 08:27:54;;;;;;;;;;;;;;;20.90;70.67;100238.91;4995211;28;1286;-90
2022/07/26 08:30:20;;;;;;;;;;;;;;;20.74;71.35;100233.31;4998758;28;1603;-91
2022/07/26 08:32:45;;;;;;;;;;;;;;;20.82;71.41;100237.09;4994991;28;1887;-88
2022/07/26 08:35:11;;;;;;;;;;;;;;;20.93;71.01;100239.00;4995183;28;1079;-88
2022/07/26 08:37:36;;;;;;;;;;;;;;;21.02;70.68;100238.81;4994997;28;1220;-90
2022/07/26 08:40:02;;;;;;;;;;;;;;;21.04;70.35;100237.31;4994974;28;1227;-91
2022/07/26 08:42:27;;;;;;;;;;;;;;;21.00;71.35;100230.06;4996228;28;924;-91
2022/07/26 08:44:52;;;;;;;;;;;;;;;20.85;71.07;100233.59;4995123;28;1013;-91
2022/07/26 08:47:18;;;;;;;;;;;;;;;20.87;70.87;100237.66;4994961;28;1215;-90
2022/07/26 08:49:44;;;;;;;;;;;;;;;20.90;70.52;100245.28;4994823;28;1173;-90
2022/07/26 08:52:10;;;;;;;;;;;;;;;20.88;70.62;100236.47;4994784;28;1890;-90
2022/07/26 08:54:40;;;;;;;;;;;;;;;20.83;70.50;100250.66;4994786;28;1169;-90
2022/07/26 08:57:06;;;;;;;;;;;;;;;20.84;71.74;100248.69;4996024;28;1080;-89
2022/07/26 08:59:31;;;;;;;;;;;;;;;20.83;71.00;100269.31;4994987;28;1330;-88
2022/07/26 09:01:58;;;;;;;;;;;;;;;20.79;72.42;100263.66;4994616;28;1253;-88
2022/07/26 09:04:27;;;;;;;;;;;;;;;20.63;70.95;100260.81;4994579;28;1369;-87
2022/07/26 09:06:54;;;;;;;;;;;;;;;20.92;71.65;100273.56;4994523;28;1285;-88
2022/07/26 09:09:19;;;;;;;;;;;;;;;20.90;69.88;100269.53;4994758;28;1265;-88
2022/07/26 09:11:44;;;;;;;;;;;;;;;20.54;70.44;100268.50;4993863;28;1894;-89
2022/07/26 09:14:09;;;;;;;;;;;;;;;20.69;71.21;100275.28;4994364;28;1212;-91
2022/07/26 09:16:34;;;;;;;;;;;;;;;20.51;70.88;100280.31;4994402;28;1232;-91
2022/07/26 09:19:17;;;;;;;;;;;;;;;20.68;72.33;100279.22;4994301;28;1192;-90
2022/07/26 09:21:42;;;;;;;;;;;;;;;20.91;70.87;100274.72;4994032;28;1657;-91
2022/07/26 09:24:08;;;;;;;;;;;;;;;20.93;69.08;100274.34;4994114;28;956;-90
2022/07/26 09:26:33;;;;;;;;;;;;;;;20.88;69.36;100271.84;4994210;28;1303;-91
2022/07/26 09:29:09;;;;;;;;;;;;;;;20.84;70.16;100270.94;4995403;28;874;-91
2022/07/26 09:31:35;;;;;;;;;;;;;;;21.03;70.72;100282.19;4993492;28;1961;-92
2022/07/26 09:34:01;;;;;;;;;;;;;;;21.13;70.80;100279.72;4992812;28;1412;-90
2022/07/26 09:36:26;;;;;;;;;;;;;;;21.10;68.67;100283.19;4993562;28;1320;-91
2022/07/26 09:38:52;;;;;;;;;;;;;;;21.14;69.29;100274.94;4993396;28;1363;-90
2022/07/26 09:41:22;;;;;;;;;;;;;;;21.04;67.61;100278.25;4993501;28;1201;-91
2022/07/26 09:43:47;;;;;;;;;;;;;;;20.98;68.63;100277.72;4993684;28;1440;-90
2022/07/26 09:46:13;;;;;;;;;;;;;;;21.08;70.19;100285.53;4994102;28;1203;-91
2022/07/26 09:48:38;;;;;;;;;;;;;;;21.06;67.58;100276.75;4995969;28;924;-90
2022/07/26 09:51:04;;;;;;;;;;;;;;;21.07;68.68;100277.53;4993461;28;1955;-90
2022/07/26 09:53:37;;;;;;;;;;;;;;;21.16;68.06;100275.41;4992127;28;1436;-91
2022/07/26 09:56:02;;;;;;;;;;;;;;;21.15;68.19;100282.13;4993656;28;1245;-91
2022/07/26 09:58:28;;;;;;;;;;;;;;;21.35;68.09;100286.66;4993674;28;1287;-90
2022/07/26 10:00:53;;;;;;;;;;;;;;;21.60;67.81;100270.63;4993164;28;1257;-91
2022/07/26 10:03:18;;;;;;;;;;;;;;;21.64;66.79;100267.91;4993217;28;1383;-91
2022/07/26 10:05:43;;;;;;;;;;;;;;;21.67;65.99;100267.19;4982740;28;1436;-89
2022/07/26 10:08:09;;;;;;;;;;;;;;;21.79;67.54;100281.00;4973818;28;1330;-92
2022/07/26 10:10:54;;;;;;;;;;;;;;;21.66;66.35;100269.16;4974897;28;1193;-91
2022/07/26 10:13:19;;;;;;;;;;;;;;;21.56;64.71;100271.69;4978629;28;1964;-91
2022/07/26 10:15:45;;;;;;;;;;;;;;;21.60;66.62;100269.81;4993017;28;1287;-91
2022/07/26 10:18:29;;;;;;;;;;;;;;;21.58;64.44;100275.75;4992585;28;1302;-91
2022/07/26 10:20:55;;;;;;;;;;;;;;;21.42;65.96;100281.31;4993157;28;1495;-91
2022/07/26 10:23:33;;;;;;;;;;;;;;;21.39;62.46;100284.81;4992161;28;1444;-90
2022/07/26 10:25:59;;;;;;;;;;;;;;;21.47;64.87;100283.00;4992840;28;1407;-89
2022/07/26 10:28:25;;;;;;;;;;;;;;;21.57;63.16;100288.03;4992719;28;1294;-90
2022/07/26 10:30:50;;;;;;;;;;;;;;;21.44;61.95;100281.72;4992744;28;1259;-90
2022/07/26 10:33:17;;;;;;;;;;;;;;;21.23;60.66;100297.91;4994011;28;1891;-93
2022/07/26 10:35:42;;;;;;;;;;;;;;;21.31;61.45;100291.34;4992938;28;1273;-91
2022/07/26 10:38:10;;;;;;;;;;;;;;;21.44;60.54;100283.72;4992110;28;1435;-91
2022/07/26 10:40:36;;;;;;;;;;;;;;;21.61;59.26;100290.91;4994154;28;1292;-92
2022/07/26 10:43:11;;;;;;;;;;;;;;;21.63;60.47;100289.38;4993771;28;992;-88
2022/07/26 10:45:37;;;;;;;;;;;;;;;21.81;57.88;100285.06;4992761;28;1192;-90
2022/07/26 10:48:12;;;;;;;;;;;;;;;21.94;59.74;100296.13;4984177;28;1508;-92
2022/07/26 10:50:38;;;;;;;;;;;;;;;21.75;63.36;100303.22;4973413;28;1218;-92
2022/07/26 10:53:04;;;;;;;;;;;;;;;21.49;63.69;100314.09;4973058;28;1958;-88
2022/07/26 10:55:29;;;;;;;;;;;;;;;21.49;64.20;100351.09;4973331;28;1204;-88
2022/07/26 10:57:54;;;;;;;;;;;;;;;21.33;63.98;100325.22;4987352;28;1446;-88
2022/07/26 11:00:22;;;;;;;;;;;;;;;21.19;65.37;100327.59;4991675;28;1395;-88
2022/07/26 11:02:48;;;;;;;;;;;;;;;20.96;64.81;100334.88;4992803;28;1389;-87
2022/07/26 11:05:15;;;;;;;;;;;;;;;21.15;64.01;100333.06;4992611;28;1343;-88
2022/07/26 11:07:48;;;;;;;;;;;;;;;21.35;64.88;100336.00;4992560;28;1367;-90
2022/07/26 11:10:13;;;;;;;;;;;;;;;21.26;63.62;100333.38;4992820;28;1484;-89
2022/07/26 11:12:38;;;;;;;;;;;;;;;21.04;64.22;100333.91;4992597;28;1901;-92
2022/07/26 11:15:16;;;;;;;;;;;;;;;21.01;64.44;100340.97;4992308;28;1290;-90
2022/07/26 11:17:41;;;;;;;;;;;;;;;21.06;65.17;100349.09;4992461;28;1493;-90
2022/07/26 11:20:07;;;;;;;;;;;;;;;21.40;64.45;100347.69;4991804;28;1483;-92
2022/07/26 11:22:33;;;;;;;;;;;;;;;21.28;65.48;100358.06;4993640;28;1166;-90
2022/07/26 11:24:58;;;;;;;;;;;;;;;21.04;65.10;100370.09;4992169;28;1312;-91
2022/07/26 11:27:23;;;;;;;;;;;;;;;20.75;66.21;100363.72;4992487;28;1288;-90
2022/07/26 11:29:48;;;;;;;;;;;;;;;20.59;67.06;100373.09;4994523;28;1415;-91
2022/07/26 11:32:15;;;;;;;;;;;;;;;20.44;67.09;100384.97;4997119;28;1960;-90
2022/07/26 11:34:41;;;;;;;;;;;;;;;20.55;67.60;100370.25;4995955;28;1219;-91
2022/07/26 11:37:06;;;;;;;;;;;;;;;20.55;68.21;100367.44;4995906;28;1240;-90
2022/07/26 11:39:32;;;;;;;;;;;;;;;20.62;67.75;100386.31;4994659;28;1425;-90
2022/07/26 11:41:58;;;;;;;;;;;;;;;20.34;67.97;100383.47;4997883;28;1294;-90
2022/07/26 11:44:24;;;;;;;;;;;;;;;20.52;67.61;100389.56;4999920;28;1216;-88
2022/07/26 11:46:49;;;;;;;;;;;;;;;20.07;68.99;100386.94;4998939;28;2078;-92
2022/07/26 11:49:15;;;;;;;;;;;;;;;20.18;69.15;100404.75;4990173;28;1425;-89
2022/07/26 11:51:47;;;;;;;;;;;;;;;20.17;69.15;100403.13;4995488;28;1905;-91
2022/07/26 11:54:12;;;;;;;;;;;;;;;20.12;69.56;100412.50;4995292;28;1180;-90
2022/07/26 11:56:37;;;;;;;;;;;;;;;20.21;70.61;100415.19;4996744;28;1059;-91
2022/07/26 11:59:02;;;;;;;;;;;;;;;20.07;70.80;100415.53;4995763;28;1422;-90
2022/07/26 12:01:28;;;;;;;;;;;;;;;19.98;72.17;100410.06;4995234;28;1264;-92
2022/07/26 12:03:53;;;;;;;;;;;;;;;19.95;72.36;100413.53;4995035;28;1291;-89
2022/07/26 12:06:21;;;;;;;;;;;;;;;19.94;73.01;100423.03;4995375;28;1229;-88
2022/07/26 12:08:48;;;;;;;;;;;;;;;19.79;73.55;100420.91;4994786;28;1423;-89
2022/07/26 12:11:14;;;;;;;;;;;;;;;19.92;74.24;100430.88;4992088;28;1963;-90
2022/07/26 12:13:59;;;;;;;;;;;;;;;20.02;73.82;100422.09;4996074;28;996;-92
2022/07/26 12:16:37;;;;;;;;;;;;;;;20.37;74.12;100421.69;4996252;28;805;-89
2022/07/26 12:19:03;;;;;;;;;;;;;;;20.26;73.80;100423.28;4994237;28;1329;-91
2022/07/26 12:21:39;;;;;;;;;;;;;;;20.05;75.07;100417.03;4994957;28;1213;-90
2022/07/26 12:24:04;;;;;;;;;;;;;;;19.93;75.31;100420.59;4977540;28;1438;-90
2022/07/26 12:26:29;;;;;;;;;;;;;;;20.12;76.25;100418.06;4975500;28;1340;-90
2022/07/26 12:28:55;;;;;;;;;;;;;;;20.42;75.90;100418.66;4975808;28;1503;-89
2022/07/26 12:31:28;;;;;;;;;;;;;;;20.33;75.45;100431.88;4993915;28;1967;-92
2022/07/26 12:33:53;;;;;;;;;;;;;;;20.37;75.09;100419.72;4994617;28;1355;-90
2022/07/26 12:36:19;;;;;;;;;;;;;;;20.12;76.64;100422.81;4994635;28;1206;-91
2022/07/26 12:38:44;;;;;;;;;;;;;;;20.50;76.44;100428.06;4995797;28;1004;-90
2022/07/26 12:41:10;;;;;;;;;;;;;;;20.71;75.70;100423.16;4993198;28;1593;-89